Time;durP1;ratioP1;P1;durP2;ratioP2;P2;SDS_P1;SDS_P2;PMS_P1;PMS_P2;Temp;Humidity;BMP_temperature;BMP_pressure;BME280_temperature;BME280_humidity;BME280_pressure;Samples;Min_cycle;Max_cycle;Signal;HPM_P1;HPM_P2
2024/03/15 00:00:05;;;;;;;14.55;6.63;;;;;;;-140.81;100.00;62400.31;5005949;28;20038;-61
2024/03/15 00:02:33;;;;;;;15.05;7.20;;;;;;;-140.81;100.00;62400.31;5005970;28;20473;-62
2024/03/15 00:04:59;;;;;;;13.77;5.90;;;;;;;-140.81;100.00;62400.31;5007861;28;20049;-60
2024/03/15 00:07:25;;;;;;;13.32;6.50;;;;;;;-140.81;100.00;62400.31;4989894;28;20147;-61
2024/03/15 00:09:51;;;;;;;13.93;6.18;;;;;;;-140.81;100.00;62400.31;5006478;28;20045;-62
2024/03/15 00:12:17;;;;;;;14.13;6.95;;;;;;;-140.81;100.00;62400.31;5005810;28;20045;-59
2024/03/15 00:14:44;;;;;;;12.00;6.03;;;;;;;-140.81;100.00;62400.31;4989407;28;20188;-61
2024/03/15 00:17:11;;;;;;;13.90;6.57;;;;;;;-140.81;100.00;62400.31;5007044;28;20122;-60
2024/03/15 00:19:37;;;;;;;19.67;7.15;;;;;;;-140.81;100.00;62400.31;4988950;28;20043;-59
2024/03/15 00:22:04;;;;;;;9.93;5.68;;;;;;;-140.81;100.00;62400.31;5004551;28;20095;-60
2024/03/15 00:24:30;;;;;;;14.23;7.05;;;;;;;-140.81;100.00;62400.31;5005940;28;20042;-60
2024/03/15 00:26:56;;;;;;;13.27;6.32;;;;;;;-140.81;100.00;62400.31;5007020;28;20056;-61
2024/03/15 00:29:22;;;;;;;15.23;7.43;;;;;;;-140.81;100.00;62400.31;5037804;28;20041;-60
2024/03/15 00:31:48;;;;;;;11.63;6.18;;;;;;;-140.81;100.00;62400.31;5037448;28;20108;-60
2024/03/15 00:34:14;;;;;;;13.75;7.30;;;;;;;-140.81;100.00;62400.31;5006712;28;20069;-61
2024/03/15 00:36:41;;;;;;;14.60;7.03;;;;;;;-140.81;100.00;62400.31;4973050;28;20046;-60
2024/03/15 00:39:07;;;;;;;17.02;7.55;;;;;;;-140.81;100.00;62400.31;5006231;28;20054;-61
2024/03/15 00:41:35;;;;;;;15.38;7.60;;;;;;;-140.81;100.00;62400.31;5005142;28;20046;-61
2024/03/15 00:44:01;;;;;;;14.85;7.03;;;;;;;-140.81;100.00;62400.31;5005218;28;20072;-61
2024/03/15 00:46:27;;;;;;;14.40;7.05;;;;;;;-140.81;100.00;62400.31;5006671;28;20068;-61
2024/03/15 00:48:53;;;;;;;13.20;6.60;;;;;;;-140.81;100.00;62400.31;5005446;28;20537;-61
2024/03/15 00:51:20;;;;;;;13.05;6.80;;;;;;;-140.81;100.00;62400.31;5037502;28;20048;-59
2024/03/15 00:53:46;;;;;;;15.73;7.65;;;;;;;-140.81;100.00;62400.31;5004214;28;20053;-61
2024/03/15 00:56:12;;;;;;;12.57;6.75;;;;;;;-140.81;100.00;62400.31;5004549;28;20046;-60
2024/03/15 00:58:38;;;;;;;17.98;7.95;;;;;;;-140.81;100.00;62400.31;5004740;28;20121;-60
2024/03/15 01:01:05;;;;;;;15.32;7.45;;;;;;;-140.81;100.00;62400.31;4986398;28;20095;-60
2024/03/15 01:03:31;;;;;;;14.40;6.80;;;;;;;-140.81;100.00;62400.31;5006696;28;20538;-59
2024/03/15 01:05:58;;;;;;;15.98;7.13;;;;;;;-140.81;100.00;62400.31;5006202;28;20050;-61
2024/03/15 01:08:25;;;;;;;13.25;6.38;;;;;;;-140.81;100.00;62400.31;5004703;28;20033;-61
2024/03/15 01:10:52;;;;;;;15.90;7.18;;;;;;;-140.81;100.00;62400.31;4995831;28;20141;-59
2024/03/15 01:13:18;;;;;;;13.98;6.55;;;;;;;-140.81;100.00;62400.31;5005075;28;20088;-63
2024/03/15 01:15:45;;;;;;;15.77;7.30;;;;;;;-140.81;100.00;62400.31;4989109;28;20046;-61
2024/03/15 01:18:12;;;;;;;12.05;6.68;;;;;;;-140.81;100.00;62400.31;5006859;28;20077;-60
2024/03/15 01:20:39;;;;;;;15.32;7.00;;;;;;;-140.81;100.00;62400.31;5000565;28;20657;-62
2024/03/15 01:23:05;;;;;;;17.30;7.50;;;;;;;-140.81;100.00;62400.31;4985413;28;20856;-60
2024/03/15 01:25:34;;;;;;;12.50;6.47;;;;;;;-140.81;100.00;62400.31;5001450;28;20046;-59
2024/03/15 01:28:02;;;;;;;15.75;7.75;;;;;;;-140.81;100.00;62400.31;5001298;28;20474;-60
2024/03/15 01:30:32;;;;;;;19.42;8.05;;;;;;;-140.81;100.00;62400.31;4986156;28;20101;-61
2024/03/15 01:32:58;;;;;;;14.68;7.70;;;;;;;-140.81;100.00;62400.31;4970382;28;20064;-59
2024/03/15 01:35:32;;;;;;;16.02;6.97;;;;;;;-140.81;100.00;62400.31;5008824;28;20053;-59
2024/03/15 01:38:03;;;;;;;15.13;6.47;;;;;;;-140.81;100.00;62400.31;5009000;28;20112;-61
2024/03/15 01:40:34;;;;;;;13.63;6.00;;;;;;;-140.81;100.00;62400.31;5010006;28;20575;-60
2024/03/15 01:43:01;;;;;;;12.70;6.80;;;;;;;-140.81;100.00;62400.31;5006594;28;20090;-59
2024/03/15 01:45:28;;;;;;;15.23;7.50;;;;;;;-140.81;100.00;62400.31;5004830;28;20050;-60
2024/03/15 01:47:55;;;;;;;16.63;6.90;;;;;;;-140.81;100.00;62400.31;5004858;28;20045;-60
2024/03/15 01:50:22;;;;;;;16.77;6.63;;;;;;;-140.81;100.00;62400.31;4988452;28;20046;-60
2024/03/15 01:52:50;;;;;;;16.33;7.70;;;;;;;-140.81;100.00;62400.31;5005011;28;20148;-61
2024/03/15 01:55:16;;;;;;;15.10;6.72;;;;;;;-140.81;100.00;62400.31;4990328;28;20516;-59
2024/03/15 01:57:43;;;;;;;15.07;7.10;;;;;;;-140.81;100.00;62400.31;5021105;28;20049;-62
2024/03/15 02:00:10;;;;;;;13.77;7.05;;;;;;;-140.81;100.00;62400.31;4988599;28;20048;-60
2024/03/15 02:02:40;;;;;;;13.82;7.03;;;;;;;-140.81;100.00;62400.31;4998436;28;20041;-61
2024/03/15 02:05:06;;;;;;;15.98;7.90;;;;;;;-140.81;100.00;62400.31;5008585;28;20139;-64
2024/03/15 02:07:31;;;;;;;12.68;6.55;;;;;;;-140.81;100.00;62400.31;5009760;28;20136;-61
2024/03/15 02:09:57;;;;;;;17.80;7.55;;;;;;;-140.81;100.00;62400.31;5009294;28;20046;-60
2024/03/15 02:12:25;;;;;;;12.10;6.68;;;;;;;-140.81;100.00;62400.31;5007240;28;20095;-61
2024/03/15 02:14:52;;;;;;;20.10;7.40;;;;;;;-140.81;100.00;62400.31;4991739;28;20041;-61
2024/03/15 02:17:20;;;;;;;15.32;7.20;;;;;;;-140.81;100.00;62400.31;5009064;28;20054;-60
2024/03/15 02:19:46;;;;;;;15.57;7.85;;;;;;;-140.81;100.00;62400.31;5007717;28;20164;-61
2024/03/15 02:22:12;;;;;;;19.35;7.65;;;;;;;-140.81;100.00;62400.31;5008646;28;20046;-60
2024/03/15 02:24:41;;;;;;;13.18;7.03;;;;;;;-140.81;100.00;62400.31;5007597;28;20160;-61
2024/03/15 02:27:13;;;;;;;14.00;7.15;;;;;;;-140.81;100.00;62400.31;5009012;28;20038;-61
2024/03/15 02:29:40;;;;;;;17.90;7.75;;;;;;;-140.81;100.00;62400.31;4991529;28;20057;-61
2024/03/15 02:32:07;;;;;;;14.55;7.80;;;;;;;-140.81;100.00;62400.31;4998777;28;20042;-61
2024/03/15 02:34:37;;;;;;;13.40;6.93;;;;;;;-140.81;100.00;62400.31;4968507;28;20429;-61
2024/03/15 02:37:04;;;;;;;17.10;7.93;;;;;;;-140.81;100.00;62400.31;5019854;28;20070;-60
2024/03/15 02:39:30;;;;;;;18.13;8.02;;;;;;;-140.81;100.00;62400.31;5020364;28;20042;-60
2024/03/15 02:41:59;;;;;;;12.25;5.85;;;;;;;-140.81;100.00;62400.31;5020775;28;20057;-59
2024/03/15 02:44:25;;;;;;;10.95;5.70;;;;;;;-140.81;100.00;62400.31;4983252;28;20034;-60
2024/03/15 02:46:51;;;;;;;16.38;8.25;;;;;;;-140.81;100.00;62400.31;5008465;28;20050;-60
2024/03/15 02:49:17;;;;;;;18.58;7.85;;;;;;;-140.81;100.00;62400.31;5006836;28;20097;-61
2024/03/15 02:51:44;;;;;;;11.30;5.72;;;;;;;-140.81;100.00;62400.31;5007236;28;20034;-61
2024/03/15 02:54:10;;;;;;;18.25;7.80;;;;;;;-140.81;100.00;62400.31;5008319;28;20052;-61
2024/03/15 02:56:36;;;;;;;15.18;7.43;;;;;;;-140.81;100.00;62400.31;5007028;28;20050;-61
2024/03/15 02:59:02;;;;;;;14.93;7.97;;;;;;;-140.81;100.00;62400.31;5008191;28;20042;-60
2024/03/15 03:01:28;;;;;;;18.38;8.43;;;;;;;-140.81;100.00;62400.31;5039243;28;20041;-60
2024/03/15 03:03:56;;;;;;;17.50;6.22;;;;;;;-140.81;100.00;62400.31;5007148;28;20434;-61
2024/03/15 03:06:22;;;;;;;15.73;8.27;;;;;;;-140.81;100.00;62400.31;5006967;28;20140;-62
2024/03/15 03:08:49;;;;;;;22.00;8.32;;;;;;;-140.81;100.00;62400.31;4990324;28;20433;-61
2024/03/15 03:11:17;;;;;;;15.02;7.22;;;;;;;-140.81;100.00;62400.31;5007423;28;20045;-61
2024/03/15 03:13:43;;;;;;;12.85;5.05;;;;;;;-140.81;100.00;62400.31;5006448;28;20060;-60
2024/03/15 03:16:17;;;;;;;15.82;6.50;;;;;;;-140.81;100.00;62400.31;4990746;28;20046;-55
2024/03/15 03:18:43;;;;;;;10.65;5.32;;;;;;;-140.81;100.00;62400.31;5008223;28;20104;-61
2024/03/15 03:21:09;;;;;;;13.23;6.65;;;;;;;-140.81;100.00;62400.31;5006311;28;20050;-61
2024/03/15 03:23:35;;;;;;;13.43;6.30;;;;;;;-140.81;100.00;62400.31;5006539;28;20545;-61
2024/03/15 03:26:01;;;;;;;24.98;8.32;;;;;;;-140.81;100.00;62400.31;5007503;28;20065;-60
2024/03/15 03:28:27;;;;;;;15.52;8.07;;;;;;;-140.81;100.00;62400.31;5006303;28;20073;-60
2024/03/15 03:30:52;;;;;;;13.57;6.30;;;;;;;-140.81;100.00;62400.31;5007799;28;20814;-57
2024/03/15 03:33:18;;;;;;;19.27;8.85;;;;;;;-140.81;100.00;62400.31;5003361;28;20136;-59
2024/03/15 03:35:47;;;;;;;17.00;8.45;;;;;;;-140.81;100.00;62400.31;5007221;28;20046;-63
2024/03/15 03:38:12;;;;;;;19.15;8.20;;;;;;;-140.81;100.00;62400.31;5005740;28;20042;-65
2024/03/15 03:40:40;;;;;;;14.88;7.00;;;;;;;-140.81;100.00;62400.31;4984290;28;20042;-63
2024/03/15 03:43:06;;;;;;;11.73;6.30;;;;;;;-140.81;100.00;62400.31;4955402;28;20125;-64
2024/03/15 03:45:32;;;;;;;13.48;5.68;;;;;;;-140.81;100.00;62400.31;5007162;28;20041;-63
2024/03/15 03:47:58;;;;;;;18.38;7.38;;;;;;;-140.81;100.00;62400.31;4984838;28;20052;-61
2024/03/15 03:50:24;;;;;;;10.55;5.03;;;;;;;-140.81;100.00;62400.31;4986930;28;20678;-63
2024/03/15 03:52:52;;;;;;;17.25;6.88;;;;;;;-140.81;100.00;62400.31;5003637;28;20128;-65
2024/03/15 03:55:18;;;;;;;21.08;8.60;;;;;;;-140.81;100.00;62400.31;5007170;28;20046;-61
2024/03/15 03:57:45;;;;;;;15.02;7.28;;;;;;;-140.81;100.00;62400.31;5006552;28;20514;-60
2024/03/15 04:00:14;;;;;;;16.67;7.68;;;;;;;-140.81;100.00;62400.31;5007169;28;20040;-62
2024/03/15 04:02:43;;;;;;;16.10;8.18;;;;;;;-140.81;100.00;62400.31;5005279;28;20436;-62
2024/03/15 04:05:10;;;;;;;16.33;7.90;;;;;;;-140.81;100.00;62400.31;5005303;28;20498;-62
2024/03/15 04:07:36;;;;;;;16.02;6.70;;;;;;;-140.81;100.00;62400.31;5006959;28;20517;-62
2024/03/15 04:10:03;;;;;;;17.85;6.63;;;;;;;-140.81;100.00;62400.31;5005724;28;20041;-59
2024/03/15 04:12:29;;;;;;;14.75;6.95;;;;;;;-140.81;100.00;62400.31;5006434;28;20045;-59
2024/03/15 04:14:55;;;;;;;17.83;7.70;;;;;;;-140.81;100.00;62400.31;4971896;28;20049;-59
2024/03/15 04:17:23;;;;;;;18.25;8.23;;;;;;;-140.81;100.00;62400.31;4988560;28;20724;-59
2024/03/15 04:19:49;;;;;;;18.67;7.70;;;;;;;-140.81;100.00;62400.31;5006173;28;20045;-55
2024/03/15 04:22:16;;;;;;;16.02;7.65;;;;;;;-140.81;100.00;62400.31;5005334;28;20041;-60
2024/03/15 04:24:43;;;;;;;17.23;7.72;;;;;;;-140.81;100.00;62400.31;4988268;28;20061;-60
2024/03/15 04:27:09;;;;;;;17.50;8.88;;;;;;;-140.81;100.00;62400.31;4988962;28;20045;-57
2024/03/15 04:29:36;;;;;;;17.10;8.43;;;;;;;-140.81;100.00;62400.31;5005661;28;20045;-63
2024/03/15 04:32:02;;;;;;;18.85;8.02;;;;;;;-140.81;100.00;62400.31;4965190;28;20053;-62
2024/03/15 04:34:30;;;;;;;17.73;8.68;;;;;;;-140.81;100.00;62400.31;4995093;28;20478;-60
2024/03/15 04:36:57;;;;;;;21.08;8.70;;;;;;;-140.81;100.00;62400.31;5006512;28;20061;-60
2024/03/15 04:39:23;;;;;;;17.90;8.77;;;;;;;-140.81;100.00;62400.31;5006609;28;20041;-56
2024/03/15 04:41:49;;;;;;;22.60;8.73;;;;;;;-140.81;100.00;62400.31;5006534;28;20441;-59
2024/03/15 04:44:15;;;;;;;18.27;8.55;;;;;;;-140.81;100.00;62400.31;5004488;28;20045;-56
2024/03/15 04:46:41;;;;;;;20.42;8.43;;;;;;;-140.81;100.00;62400.31;4989016;28;20040;-56
2024/03/15 04:49:07;;;;;;;17.38;8.45;;;;;;;-140.81;100.00;62400.31;5005534;28;20049;-45
2024/03/15 04:51:33;;;;;;;15.55;6.47;;;;;;;-140.81;100.00;62400.31;5006688;28;20052;-47
2024/03/15 04:54:00;;;;;;;16.15;8.52;;;;;;;-140.81;100.00;62400.31;5037994;28;20046;-49
2024/03/15 04:56:26;;;;;;;18.67;8.70;;;;;;;-140.81;100.00;62400.31;5021030;28;20137;-43
2024/03/15 04:58:52;;;;;;;14.77;7.97;;;;;;;-140.81;100.00;62400.31;5005274;28;20132;-44
2024/03/15 05:01:18;;;;;;;18.70;8.82;;;;;;;-140.81;100.00;62400.31;5006367;28;20192;-47
2024/03/15 05:03:49;;;;;;;19.70;8.70;;;;;;;-140.81;100.00;62400.31;5006347;28;20121;-43
2024/03/15 05:06:15;;;;;;;19.50;8.38;;;;;;;-140.81;100.00;62400.31;5005187;28;20061;-47
2024/03/15 05:08:41;;;;;;;15.85;8.18;;;;;;;-140.81;100.00;62400.31;5007176;28;20069;-44
2024/03/15 05:11:07;;;;;;;14.68;6.32;;;;;;;-140.81;100.00;62400.31;5009268;28;20042;-46
2024/03/15 05:13:35;;;;;;;10.98;5.22;;;;;;;-140.81;100.00;62400.31;5008781;28;20038;-47
2024/03/15 05:16:02;;;;;;;16.33;6.63;;;;;;;-140.81;100.00;62400.31;4998855;28;20121;-46
2024/03/15 05:18:29;;;;;;;19.63;8.88;;;;;;;-140.81;100.00;62400.31;5005314;28;20042;-43
2024/03/15 05:20:55;;;;;;;16.60;7.85;;;;;;;-140.81;100.00;62400.31;5009747;28;20573;-45
2024/03/15 05:23:40;;;;;;;18.20;8.25;;;;;;;-140.81;100.00;62400.31;5007871;28;20057;-47
2024/03/15 05:26:06;;;;;;;15.82;8.07;;;;;;;-140.81;100.00;62400.31;5023975;28;20129;-44
2024/03/15 05:28:33;;;;;;;14.25;6.20;;;;;;;-140.81;100.00;62400.31;4997445;28;20497;-43
2024/03/15 05:30:59;;;;;;;12.93;6.72;;;;;;;-140.81;100.00;62400.31;5027142;28;20052;-46
2024/03/15 05:33:25;;;;;;;11.38;5.90;;;;;;;-140.81;100.00;62400.31;4991228;28;20042;-49
2024/03/15 05:35:51;;;;;;;17.40;7.97;;;;;;;-140.81;100.00;62400.31;4989146;28;20622;-48
2024/03/15 05:38:17;;;;;;;17.65;8.50;;;;;;;-140.81;100.00;62400.31;4992220;28;20088;-44
2024/03/15 05:40:43;;;;;;;15.27;7.72;;;;;;;-140.81;100.00;62400.31;4992370;28;20355;-44
2024/03/15 05:43:09;;;;;;;15.05;8.05;;;;;;;-140.81;100.00;62400.31;5009978;28;20099;-45
2024/03/15 05:45:35;;;;;;;14.20;6.70;;;;;;;-140.81;100.00;62400.31;5008377;28;20532;-48
2024/03/15 05:48:01;;;;;;;13.65;7.68;;;;;;;-140.81;100.00;62400.31;5040871;28;20480;-47
2024/03/15 05:50:29;;;;;;;14.18;7.45;;;;;;;-140.81;100.00;62400.31;4989646;28;20553;-45
2024/03/15 05:52:55;;;;;;;21.80;8.43;;;;;;;-140.81;100.00;62400.31;4989568;28;20045;-46
2024/03/15 05:55:21;;;;;;;13.13;6.53;;;;;;;-140.81;100.00;62400.31;4989543;28;20050;-45
2024/03/15 05:57:47;;;;;;;16.40;7.63;;;;;;;-140.81;100.00;62400.31;4989612;28;20637;-47
2024/03/15 06:00:14;;;;;;;17.58;9.45;;;;;;;-140.81;100.00;62400.31;5001595;28;20132;-46
2024/03/15 06:02:40;;;;;;;16.38;8.65;;;;;;;-140.81;100.00;62400.31;5007598;28;20334;-49
2024/03/15 06:05:07;;;;;;;14.50;8.27;;;;;;;-140.81;100.00;62400.31;5007982;28;20536;-45
2024/03/15 06:07:34;;;;;;;14.00;7.93;;;;;;;-140.81;100.00;62400.31;5009483;28;20038;-48
2024/03/15 06:10:00;;;;;;;18.00;9.20;;;;;;;-140.81;100.00;62400.31;5008894;28;20088;-44
2024/03/15 06:12:27;;;;;;;17.05;9.13;;;;;;;-140.81;100.00;62400.31;4972095;28;20407;-45
2024/03/15 06:14:54;;;;;;;19.20;9.70;;;;;;;-140.81;100.00;62400.31;4988396;28;20417;-48
2024/03/15 06:17:20;;;;;;;20.02;9.95;;;;;;;-140.81;100.00;62400.31;4988506;28;20458;-45
2024/03/15 06:19:48;;;;;;;17.98;9.98;;;;;;;-140.81;100.00;62400.31;4973730;28;20038;-49
2024/03/15 06:22:14;;;;;;;16.48;8.18;;;;;;;-140.81;100.00;62400.31;5007253;28;20076;-44
2024/03/15 06:24:42;;;;;;;11.88;6.68;;;;;;;-140.81;100.00;62400.31;5008901;28;20212;-49
2024/03/15 06:27:13;;;;;;;14.32;8.43;;;;;;;-140.81;100.00;62400.31;5023504;28;20064;-50
2024/03/15 06:29:44;;;;;;;15.75;7.53;;;;;;;-140.81;100.00;62400.31;5022799;28;20119;-49
2024/03/15 06:32:16;;;;;;;13.40;6.43;;;;;;;-140.81;100.00;62400.31;4997800;28;20042;-48
2024/03/15 06:34:44;;;;;;;20.20;9.15;;;;;;;-140.81;100.00;62400.31;4987682;28;20046;-45
2024/03/15 06:37:14;;;;;;;18.35;9.65;;;;;;;-140.81;100.00;62400.31;4955670;28;20042;-46
2024/03/15 06:42:35;;;;;;;17.23;9.18;;;;;;;-140.81;100.00;62400.31;5008944;28;20038;-49
2024/03/15 06:45:08;;;;;;;20.13;9.15;;;;;;;-140.81;100.00;62400.31;5008773;28;20096;-45
2024/03/15 06:47:38;;;;;;;17.17;9.75;;;;;;;-140.81;100.00;62400.31;5008978;28;20040;-48
2024/03/15 06:52:44;;;;;;;17.02;9.50;;;;;;;-140.81;100.00;62400.31;5007265;28;20046;-49
2024/03/15 06:55:11;;;;;;;14.25;9.75;;;;;;;-140.81;100.00;62400.31;5006788;28;20037;-47
2024/03/15 06:57:38;;;;;;;10.55;6.72;;;;;;;-140.81;100.00;62400.31;5008288;28;20050;-44
2024/03/15 07:00:09;;;;;;;15.93;8.85;;;;;;;-140.81;100.00;62400.31;5006508;28;20041;-49
2024/03/15 07:02:41;;;;;;;14.25;8.35;;;;;;;-140.81;100.00;62400.31;4974717;28;20034;-46
2024/03/15 07:05:10;;;;;;;15.57;10.25;;;;;;;-140.81;100.00;62400.31;4990934;28;20144;-46
2024/03/15 07:07:40;;;;;;;16.88;10.07;;;;;;;-140.81;100.00;62400.31;4990588;28;20033;-45
2024/03/15 07:10:07;;;;;;;13.60;8.85;;;;;;;-140.81;100.00;62400.31;5006717;28;20046;-46
2024/03/15 07:12:33;;;;;;;14.05;9.38;;;;;;;-140.81;100.00;62400.31;5007223;28;20104;-49
2024/03/15 07:14:58;;;;;;;15.82;9.20;;;;;;;-140.81;100.00;62400.31;5001279;28;20062;-45
2024/03/15 07:17:25;;;;;;;15.55;9.75;;;;;;;-140.81;100.00;62400.31;5003514;28;20053;-49
2024/03/15 07:19:50;;;;;;;15.25;10.13;;;;;;;-140.81;100.00;62400.31;5003334;28;20522;-48
2024/03/15 07:22:18;;;;;;;15.73;10.10;;;;;;;-140.81;100.00;62400.31;5000313;28;20144;-47
2024/03/15 07:24:50;;;;;;;18.35;11.50;;;;;;;-140.81;100.00;62400.31;4990519;28;20041;-49
2024/03/15 07:27:16;;;;;;;15.65;10.13;;;;;;;-140.81;100.00;62400.31;5007906;28;20104;-48
2024/03/15 07:29:45;;;;;;;21.98;10.45;;;;;;;-140.81;100.00;62400.31;5006434;28;20049;-47
2024/03/15 07:32:11;;;;;;;21.63;10.57;;;;;;;-140.81;100.00;62400.31;4987682;28;20137;-46
2024/03/15 07:34:37;;;;;;;15.23;10.75;;;;;;;-140.81;100.00;62400.31;5005717;28;20054;-48
2024/03/15 07:37:04;;;;;;;15.18;10.55;;;;;;;-140.81;100.00;62400.31;5006196;28;20129;-44
2024/03/15 07:39:32;;;;;;;14.30;11.43;;;;;;;-140.81;100.00;62400.31;5005243;28;20357;-48
2024/03/15 07:41:59;;;;;;;16.80;10.65;;;;;;;-140.81;100.00;62400.31;5005445;28;20254;-51
2024/03/15 07:44:27;;;;;;;19.35;10.98;;;;;;;-140.81;100.00;62400.31;5006346;28;20641;-50
2024/03/15 07:46:56;;;;;;;16.17;10.82;;;;;;;-140.81;100.00;62400.31;5007628;28;20037;-44
2024/03/15 07:49:25;;;;;;;15.65;10.82;;;;;;;-140.81;100.00;62400.31;5007991;28;20179;-47
2024/03/15 07:51:51;;;;;;;;;;;;;;;-140.81;100.00;62400.31;5006184;28;20069;-45
2024/03/15 07:54:18;;;;;;;15.07;10.27;;;;;;;-140.81;100.00;62400.31;4989418;28;20014;-51
2024/03/15 07:56:44;;;;;;;18.50;11.05;;;;;;;-140.81;100.00;62400.31;5006289;28;20038;-47
2024/03/15 07:59:13;;;;;;;15.25;10.13;;;;;;;-140.81;100.00;62400.31;5006244;28;20042;-47
2024/03/15 08:01:41;;;;;;;15.80;10.50;;;;;;;-140.81;100.00;62400.31;5006082;28;20363;-47
2024/03/15 08:04:08;;;;;;;14.07;9.93;;;;;;;-140.81;100.00;62400.31;5038604;28;20045;-50
2024/03/15 08:06:35;;;;;;;17.83;10.55;;;;;;;-140.81;100.00;62400.31;5007469;28;20041;-47
2024/03/15 08:09:02;;;;;;;15.70;10.15;;;;;;;-140.81;100.00;62400.31;4989450;28;20044;-46
2024/03/15 08:11:29;;;;;;;13.35;10.27;;;;;;;-140.81;100.00;62400.31;4989414;28;20053;-50
2024/03/15 08:13:55;;;;;;;12.82;9.50;;;;;;;-140.81;100.00;62400.31;5006405;28;20049;-47
2024/03/15 08:16:23;;;;;;;15.45;9.13;;;;;;;-140.81;100.00;62400.31;5007242;28;20046;-51
2024/03/15 08:18:49;;;;;;;13.68;9.25;;;;;;;-140.81;100.00;62400.31;5006560;28;20392;-50
2024/03/15 08:21:15;;;;;;;14.55;8.85;;;;;;;-140.81;100.00;62400.31;5005885;28;20563;-49
2024/03/15 08:23:45;;;;;;;17.77;9.55;;;;;;;-140.81;100.00;62400.31;5005065;28;20033;-52
2024/03/15 08:26:14;;;;;;;16.65;9.32;;;;;;;-140.81;100.00;62400.31;4988770;28;20160;-50
2024/03/15 08:28:40;;;;;;;19.33;9.82;;;;;;;-140.81;100.00;62400.31;5006548;28;20045;-48
2024/03/15 08:31:07;;;;;;;12.27;8.90;;;;;;;-140.81;100.00;62400.31;5005923;28;20152;-50
2024/03/15 08:33:33;;;;;;;18.23;9.50;;;;;;;-140.81;100.00;62400.31;4985213;28;20556;-49
2024/03/15 08:36:00;;;;;;;13.23;8.88;;;;;;;-140.81;100.00;62400.31;5003522;28;20041;-51
2024/03/15 08:38:26;;;;;;;14.98;9.15;;;;;;;-140.81;100.00;62400.31;5003987;28;20532;-47
2024/03/15 08:40:52;;;;;;;15.00;9.70;;;;;;;-140.81;100.00;62400.31;5040087;28;20046;-49
2024/03/15 08:43:18;;;;;;;12.70;7.65;;;;;;;-140.81;100.00;62400.31;5005805;28;20056;-45
2024/03/15 08:45:44;;;;;;;13.75;7.75;;;;;;;-140.81;100.00;62400.31;5001178;28;20522;-48
2024/03/15 08:48:12;;;;;;;13.77;8.77;;;;;;;-140.81;100.00;62400.31;5002590;28;20134;-49
2024/03/15 08:50:38;;;;;;;15.93;9.50;;;;;;;-140.81;100.00;62400.31;5005327;28;20052;-45
2024/03/15 08:53:07;;;;;;;9.80;7.22;;;;;;;-140.81;100.00;62400.31;5002678;28;20272;-53
2024/03/15 08:55:33;;;;;;;12.57;8.30;;;;;;;-140.81;100.00;62400.31;5004887;28;21069;-46
2024/03/15 08:57:59;;;;;;;11.13;7.28;;;;;;;-140.81;100.00;62400.31;4994992;28;20568;-49
2024/03/15 09:00:25;;;;;;;10.68;6.65;;;;;;;-140.81;100.00;62400.31;4965739;28;20674;-50
2024/03/15 09:02:54;;;;;;;10.73;6.78;;;;;;;-140.81;100.00;62400.31;5005804;28;20860;-45
2024/03/15 09:05:20;;;;;;;11.05;6.55;;;;;;;-140.81;100.00;62400.31;5006021;28;20073;-49
2024/03/15 09:07:47;;;;;;;9.38;6.43;;;;;;;-140.81;100.00;62400.31;5005883;28;20053;-48
2024/03/15 09:10:15;;;;;;;11.13;7.43;;;;;;;-140.81;100.00;62400.31;5006259;28;20273;-47
2024/03/15 09:12:45;;;;;;;10.63;7.22;;;;;;;-140.81;100.00;62400.31;5002344;28;20132;-46
2024/03/15 09:15:12;;;;;;;11.45;7.20;;;;;;;-140.81;100.00;62400.31;5004163;28;20260;-48
2024/03/15 09:17:39;;;;;;;11.93;7.75;;;;;;;-140.81;100.00;62400.31;5004164;28;20221;-48
2024/03/15 09:22:40;;;;;;;11.02;6.50;;;;;;;-140.81;100.00;62400.31;5003675;28;20639;-46
2024/03/15 09:25:06;;;;;;;9.52;6.80;;;;;;;-140.81;100.00;62400.31;5006017;28;20046;-51
2024/03/15 09:27:36;;;;;;;9.15;5.68;;;;;;;-140.81;100.00;62400.31;5004272;28;20080;-46
2024/03/15 09:30:16;;;;;;;10.60;6.78;;;;;;;-140.81;100.00;62400.31;5005813;28;20088;-49
2024/03/15 09:32:48;;;;;;;12.20;7.13;;;;;;;-140.81;100.00;62400.31;4992833;28;20046;-47
2024/03/15 09:35:14;;;;;;;10.48;7.93;;;;;;;-140.81;100.00;62400.31;5003132;28;20046;-48
2024/03/15 09:37:49;;;;;;;13.23;7.82;;;;;;;-140.81;100.00;62400.31;5006344;28;20643;-47
2024/03/15 09:40:20;;;;;;;10.40;8.38;;;;;;;-140.81;100.00;62400.31;5004692;28;20069;-48
2024/03/15 09:42:48;;;;;;;13.73;7.38;;;;;;;-140.81;100.00;62400.31;5005205;28;20057;-47
2024/03/15 09:45:16;;;;;;;9.68;7.35;;;;;;;-140.81;100.00;62400.31;4988117;28;20037;-46
2024/03/15 09:47:43;;;;;;;10.27;6.70;;;;;;;-140.81;100.00;62400.31;5005187;28;20095;-48
2024/03/15 09:50:17;;;;;;;11.63;7.28;;;;;;;-140.81;100.00;62400.31;4966369;28;20089;-51
2024/03/15 09:52:44;;;;;;;13.05;8.90;;;;;;;-140.81;100.00;62400.31;5003726;28;20052;-47
2024/03/15 09:55:16;;;;;;;13.18;8.77;;;;;;;-140.81;100.00;62400.31;4999113;28;20046;-48
2024/03/15 09:57:44;;;;;;;18.88;9.30;;;;;;;-140.81;100.00;62400.31;5009634;28;20037;-47
2024/03/15 10:00:23;;;;;;;14.95;9.50;;;;;;;-140.81;100.00;62400.31;5000218;28;20502;-46
2024/03/15 10:02:52;;;;;;;12.60;8.75;;;;;;;-140.81;100.00;62400.31;5014838;28;20084;-48
2024/03/15 10:05:22;;;;;;;11.37;7.03;;;;;;;-140.81;100.00;62400.31;5007080;28;20106;-47
2024/03/15 10:07:52;;;;;;;10.48;7.15;;;;;;;-140.81;100.00;62400.31;5006256;28;20073;-47
2024/03/15 10:10:19;;;;;;;11.48;8.10;;;;;;;-140.81;100.00;62400.31;5007563;28;20053;-50
2024/03/15 10:12:49;;;;;;;12.27;7.40;;;;;;;-140.81;100.00;62400.31;5007458;28;20573;-50
2024/03/15 10:15:17;;;;;;;15.35;9.57;;;;;;;-140.81;100.00;62400.31;5008018;28;20045;-48
2024/03/15 10:17:48;;;;;;;12.27;8.43;;;;;;;-140.81;100.00;62400.31;5008885;28;20042;-48
2024/03/15 10:20:16;;;;;;;15.20;8.43;;;;;;;-140.81;100.00;62400.31;5007858;28;20045;-50
2024/03/15 10:22:42;;;;;;;14.40;9.45;;;;;;;-140.81;100.00;62400.31;4991455;28;20460;-51
2024/03/15 10:25:18;;;;;;;14.25;8.52;;;;;;;-140.81;100.00;62400.31;4991534;28;20041;-51
2024/03/15 10:27:54;;;;;;;18.08;8.63;;;;;;;-140.81;100.00;62400.31;4991179;28;20072;-49
2024/03/15 10:30:25;;;;;;;10.98;6.38;;;;;;;-140.81;100.00;62400.31;4990742;28;20486;-46
2024/03/15 10:32:53;;;;;;;12.77;7.18;;;;;;;-140.81;100.00;62400.31;5022206;28;20464;-48
2024/03/15 10:35:24;;;;;;;13.65;6.90;;;;;;;-140.81;100.00;62400.31;5008287;28;20136;-50
2024/03/15 10:37:51;;;;;;;12.73;7.32;;;;;;;-140.81;100.00;62400.31;5007190;28;20132;-49
2024/03/15 10:40:18;;;;;;;16.13;7.93;;;;;;;-140.81;100.00;62400.31;5007122;28;20038;-52
2024/03/15 10:42:48;;;;;;;15.75;7.43;;;;;;;-140.81;100.00;62400.31;4990497;28;20044;-46
2024/03/15 10:45:15;;;;;;;11.95;7.30;;;;;;;-140.81;100.00;62400.31;5006747;28;20037;-49
2024/03/15 10:47:42;;;;;;;11.43;6.30;;;;;;;-140.81;100.00;62400.31;5006740;28;20777;-54
2024/03/15 10:50:19;;;;;;;12.85;7.13;;;;;;;-140.81;100.00;62400.31;5007191;28;20217;-51
2024/03/15 10:52:46;;;;;;;15.20;6.80;;;;;;;-140.81;100.00;62400.31;5007641;28;20417;-49
2024/03/15 10:55:17;;;;;;;14.40;7.10;;;;;;;-140.81;100.00;62400.31;5002612;28;20042;-47
2024/03/15 10:57:44;;;;;;;14.95;6.90;;;;;;;-140.81;100.00;62400.31;4987444;28;20510;-52
2024/03/15 11:00:18;;;;;;;11.98;6.95;;;;;;;-140.81;100.00;62400.31;4987070;28;20049;-52
2024/03/15 11:02:45;;;;;;;12.90;7.22;;;;;;;-140.81;100.00;62400.31;5019757;28;20038;-51
2024/03/15 11:05:19;;;;;;;12.00;7.40;;;;;;;-140.81;100.00;62400.31;5004307;28;20053;-48
2024/03/15 11:07:50;;;;;;;15.75;7.43;;;;;;;-140.81;100.00;62400.31;4990472;28;20098;-47
2024/03/15 11:10:22;;;;;;;15.20;7.10;;;;;;;-140.81;100.00;62400.31;5022893;28;20042;-46